Station Historical Data
Daily Summary for January 29, 2018 Units:  Both    English   Metric
« Previous Day
Next Day »
Daily Weekly Monthly Yearly Custom
  High: Low: Average:
Temperature: TemperatureF °F /  -17.8 °C 22.0 °F /  -5.6 °C 29.2 °F /  -1.6 °C
Dew Point: DewpointF °F /  -17.8 °C 19.3 °F /  -7.1 °C 23.4 °F /  -4.8 °C
Humidity: Humidity% 71% 78%
Wind Speed: WindSpeedMPHmph /  0km/h - 4.9mph /  7.9km/h
Wind Gust: WindSpeedGustMPHmph /  0km/h - -
Wind- - NE
Pressure: PressureIn in /  0 hPa 30.10 in /  1019.2 hPa -
Precipitation: 0.00 in /  0 mm    
Historical Graphs
 
 
Tabular Data for January 29, 2018
Time Temperature Dew Point Pressure Wind Wind Speed Wind Gust Humidity Rainfall Rate (Hourly)
TemperatureF °F /  -17.8 °C DewpointF °F /  -17.8 °C PressureInin /  0hPa Calm     Humidity% HourlyPrecipInin /  0mm
00:04 29.2 °F /  -1.6 °C 23.5 °F /  -4.7 °C 30.34in /  1027.3hPa NE 3.0mph /  4.8km/h 4.0mph /  6.4km/h 79% 0.00in /  0mm
00:09 29.3 °F /  -1.5 °C 23.3 °F /  -4.8 °C 30.34in /  1027.3hPa NNE 4.0mph /  6.4km/h 5.0mph /  8km/h 78% 0.00in /  0mm
00:14 29.2 °F /  -1.6 °C 23.2 °F /  -4.9 °C 30.35in /  1027.7hPa NNE 3.0mph /  4.8km/h 5.0mph /  8km/h 78% 0.00in /  0mm
00:19 29.3 °F /  -1.5 °C 23.3 °F /  -4.8 °C 30.35in /  1027.7hPa NNE 4.0mph /  6.4km/h 7.0mph /  11.3km/h 78% 0.00in /  0mm
00:24 29.4 °F /  -1.4 °C 23.4 °F /  -4.8 °C 30.35in /  1027.7hPa NE 2.0mph /  3.2km/h 6.0mph /  9.7km/h 78% 0.00in /  0mm
00:29 29.5 °F /  -1.4 °C 23.5 °F /  -4.7 °C 30.35in /  1027.7hPa NNE 4.0mph /  6.4km/h 5.0mph /  8km/h 78% 0.00in /  0mm
00:34 29.6 °F /  -1.3 °C 23.6 °F /  -4.7 °C 30.35in /  1027.7hPa NE 5.0mph /  8km/h 5.0mph /  8km/h 78% 0.00in /  0mm
00:39 29.6 °F /  -1.3 °C 23.3 °F /  -4.8 °C 30.35in /  1027.7hPa NE 3.0mph /  4.8km/h 6.0mph /  9.7km/h 77% 0.00in /  0mm
00:44 29.6 °F /  -1.3 °C 23.3 °F /  -4.8 °C 30.35in /  1027.7hPa NE 3.0mph /  4.8km/h 7.0mph /  11.3km/h 77% 0.00in /  0mm
00:49 29.6 °F /  -1.3 °C 23.3 °F /  -4.8 °C 30.35in /  1027.7hPa NE 3.0mph /  4.8km/h 8.0mph /  12.9km/h 77% 0.00in /  0mm
00:54 29.6 °F /  -1.3 °C 23.3 °F /  -4.8 °C 30.34in /  1027.3hPa NE 3.0mph /  4.8km/h 9.0mph /  14.5km/h 77% 0.00in /  0mm
00:59 29.5 °F /  -1.4 °C 23.2 °F /  -4.9 °C 30.34in /  1027.3hPa NE 4.0mph /  6.4km/h 6.0mph /  9.7km/h 77% 0.00in /  0mm
01:04 29.5 °F /  -1.4 °C 23.2 °F /  -4.9 °C 30.34in /  1027.3hPa NE 2.0mph /  3.2km/h 4.0mph /  6.4km/h 77% 0.00in /  0mm
01:09 29.4 °F /  -1.4 °C 23.1 °F /  -4.9 °C 30.33in /  1027hPa NE 3.0mph /  4.8km/h 5.0mph /  8km/h 77% 0.00in /  0mm
01:14 29.3 °F /  -1.5 °C 23.0 °F /  -5 °C 30.34in /  1027.3hPa NE 3.0mph /  4.8km/h 5.0mph /  8km/h 77% 0.00in /  0mm
01:19 29.3 °F /  -1.5 °C 23.0 °F /  -5 °C 30.34in /  1027.3hPa NE 3.0mph /  4.8km/h 5.0mph /  8km/h 77% 0.00in /  0mm
01:24 29.3 °F /  -1.5 °C 22.7 °F /  -5.2 °C 30.34in /  1027.3hPa Calm   7.0mph /  11.3km/h 76% 0.00in /  0mm
01:29 29.3 °F /  -1.5 °C 22.7 °F /  -5.2 °C 30.34in /  1027.3hPa NE 4.0mph /  6.4km/h 8.0mph /  12.9km/h 76% 0.00in /  0mm
01:34 29.3 °F /  -1.5 °C 22.7 °F /  -5.2 °C 30.34in /  1027.3hPa NE 3.0mph /  4.8km/h 5.0mph /  8km/h 76% 0.00in /  0mm
01:39 29.3 °F /  -1.5 °C 22.7 °F /  -5.2 °C 30.34in /  1027.3hPa North 4.0mph /  6.4km/h 6.0mph /  9.7km/h 76% 0.00in /  0mm
01:44 29.3 °F /  -1.5 °C 22.4 °F /  -5.3 °C 30.34in /  1027.3hPa NE 3.0mph /  4.8km/h 6.0mph /  9.7km/h 75% 0.00in /  0mm
01:49 29.3 °F /  -1.5 °C 22.4 °F /  -5.3 °C 30.34in /  1027.3hPa NE 3.0mph /  4.8km/h 9.0mph /  14.5km/h 75% 0.00in /  0mm
01:54 29.3 °F /  -1.5 °C 22.4 °F /  -5.3 °C 30.35in /  1027.7hPa NE 2.0mph /  3.2km/h 4.0mph /  6.4km/h 75% 0.00in /  0mm
01:59 29.3 °F /  -1.5 °C 22.4 °F /  -5.3 °C 30.35in /  1027.7hPa ENE 5.0mph /  8km/h 7.0mph /  11.3km/h 75% 0.00in /  0mm
02:04 29.3 °F /  -1.5 °C 22.4 °F /  -5.3 °C 30.35in /  1027.7hPa NE 4.0mph /  6.4km/h 7.0mph /  11.3km/h 75% 0.00in /  0mm
02:09 29.3 °F /  -1.5 °C 22.4 °F /  -5.3 °C 30.34in /  1027.3hPa ENE 3.0mph /  4.8km/h 5.0mph /  8km/h 75% 0.00in /  0mm
02:14 29.3 °F /  -1.5 °C 22.0 °F /  -5.6 °C 30.35in /  1027.7hPa ENE 4.0mph /  6.4km/h 8.0mph /  12.9km/h 74% 0.00in /  0mm
02:19 29.2 °F /  -1.6 °C 21.9 °F /  -5.6 °C 30.34in /  1027.3hPa ENE 3.0mph /  4.8km/h 8.0mph /  12.9km/h 74% 0.00in /  0mm
02:24 29.2 °F /  -1.6 °C 21.9 °F /  -5.6 °C 30.34in /  1027.3hPa ENE 3.0mph /  4.8km/h 7.0mph /  11.3km/h 74% 0.00in /  0mm
02:29 29.2 °F /  -1.6 °C 21.9 °F /  -5.6 °C 30.34in /  1027.3hPa ENE 2.0mph /  3.2km/h 6.0mph /  9.7km/h 74% 0.00in /  0mm
02:34 29.1 °F /  -1.6 °C 21.8 °F /  -5.7 °C 30.34in /  1027.3hPa NE 3.0mph /  4.8km/h 7.0mph /  11.3km/h 74% 0.00in /  0mm
02:39 29.1 °F /  -1.6 °C 21.8 °F /  -5.7 °C 30.34in /  1027.3hPa NE 2.0mph /  3.2km/h 5.0mph /  8km/h 74% 0.00in /  0mm
02:44 29.1 °F /  -1.6 °C 22.2 °F /  -5.4 °C 30.34in /  1027.3hPa ENE 1.0mph /  1.6km/h 5.0mph /  8km/h 75% 0.00in /  0mm
02:49 29.1 °F /  -1.6 °C 22.2 °F /  -5.4 °C 30.33in /  1027hPa NE 2.0mph /  3.2km/h 5.0mph /  8km/h 75% 0.00in /  0mm
02:54 29.0 °F /  -1.7 °C 22.1 °F /  -5.5 °C 30.33in /  1027hPa ENE 2.0mph /  3.2km/h 4.0mph /  6.4km/h 75% 0.00in /  0mm
02:59 29.0 °F /  -1.7 °C 22.1 °F /  -5.5 °C 30.33in /  1027hPa NNE 3.0mph /  4.8km/h 3.0mph /  4.8km/h 75% 0.00in /  0mm
03:04 28.9 °F /  -1.7 °C 22.0 °F /  -5.6 °C 30.33in /  1027hPa NE 3.0mph /  4.8km/h 5.0mph /  8km/h 75% 0.00in /  0mm
03:09 28.9 °F /  -1.7 °C 22.0 °F /  -5.6 °C 30.33in /  1027hPa NE 2.0mph /  3.2km/h 5.0mph /  8km/h 75% 0.00in /  0mm
03:14 28.9 °F /  -1.7 °C 22.0 °F /  -5.6 °C 30.33in /  1027hPa NE 2.0mph /  3.2km/h 5.0mph /  8km/h 75% 0.00in /  0mm
03:19 28.8 °F /  -1.8 °C 21.9 °F /  -5.6 °C 30.33in /  1027hPa NE 2.0mph /  3.2km/h 5.0mph /  8km/h 75% 0.00in /  0mm
03:24 28.8 °F /  -1.8 °C 21.9 °F /  -5.6 °C 30.33in /  1027hPa NE 3.0mph /  4.8km/h 5.0mph /  8km/h 75% 0.00in /  0mm
03:29 28.9 °F /  -1.7 °C 22.0 °F /  -5.6 °C 30.32in /  1026.6hPa NE 2.0mph /  3.2km/h 4.0mph /  6.4km/h 75% 0.00in /  0mm
03:34 28.8 °F /  -1.8 °C 21.9 °F /  -5.6 °C 30.33in /  1027hPa ENE 1.0mph /  1.6km/h 4.0mph /  6.4km/h 75% 0.00in /  0mm
03:40 28.8 °F /  -1.8 °C 22.2 °F /  -5.4 °C 30.33in /  1027hPa NE 2.0mph /  3.2km/h 4.0mph /  6.4km/h 76% 0.00in /  0mm
03:44 28.8 °F /  -1.8 °C 22.2 °F /  -5.4 °C 30.33in /  1027hPa NE 2.0mph /  3.2km/h 4.0mph /  6.4km/h 76% 0.00in /  0mm
03:54 28.8 °F /  -1.8 °C 22.2 °F /  -5.4 °C 30.32in /  1026.6hPa NE 2.0mph /  3.2km/h 4.0mph /  6.4km/h 76% 0.00in /  0mm
03:59 28.7 °F /  -1.8 °C 22.1 °F /  -5.5 °C 30.32in /  1026.6hPa NE 2.0mph /  3.2km/h 4.0mph /  6.4km/h 76% 0.00in /  0mm
04:04 28.7 °F /  -1.8 °C 22.1 °F /  -5.5 °C 30.32in /  1026.6hPa NE 2.0mph /  3.2km/h 4.0mph /  6.4km/h 76% 0.00in /  0mm
04:09 28.7 °F /  -1.8 °C 22.1 °F /  -5.5 °C 30.32in /  1026.6hPa NE 2.0mph /  3.2km/h 4.0mph /  6.4km/h 76% 0.00in /  0mm
04:14 28.8 °F /  -1.8 °C 22.2 °F /  -5.4 °C 30.32in /  1026.6hPa NE 2.0mph /  3.2km/h 3.0mph /  4.8km/h 76% 0.00in /  0mm
04:20 28.8 °F /  -1.8 °C 22.2 °F /  -5.4 °C 30.32in /  1026.6hPa NE 2.0mph /  3.2km/h 3.0mph /  4.8km/h 76% 0.00in /  0mm
04:29 28.9 °F /  -1.7 °C 22.3 °F /  -5.4 °C 30.32in /  1026.6hPa NE 2.0mph /  3.2km/h 4.0mph /  6.4km/h 76% 0.00in /  0mm
04:34 29.0 °F /  -1.7 °C 22.4 °F /  -5.3 °C 30.32in /  1026.6hPa NE 1.0mph /  1.6km/h 5.0mph /  8km/h 76% 0.00in /  0mm
04:39 29.0 °F /  -1.7 °C 22.4 °F /  -5.3 °C 30.32in /  1026.6hPa NE 2.0mph /  3.2km/h 3.0mph /  4.8km/h 76% 0.00in /  0mm
04:44 29.0 °F /  -1.7 °C 22.4 °F /  -5.3 °C 30.32in /  1026.6hPa NE 2.0mph /  3.2km/h 3.0mph /  4.8km/h 76% 0.00in /  0mm
04:49 29.1 °F /  -1.6 °C 22.5 °F /  -5.3 °C 30.32in /  1026.6hPa NNE 3.0mph /  4.8km/h 4.0mph /  6.4km/h 76% 0.00in /  0mm
04:54 29.1 °F /  -1.6 °C 22.5 °F /  -5.3 °C 30.32in /  1026.6hPa NE 2.0mph /  3.2km/h 6.0mph /  9.7km/h 76% 0.00in /  0mm
04:59 29.1 °F /  -1.6 °C 22.5 °F /  -5.3 °C 30.31in /  1026.3hPa NE 2.0mph /  3.2km/h 6.0mph /  9.7km/h 76% 0.00in /  0mm
05:04 29.1 °F /  -1.6 °C 22.5 °F /  -5.3 °C 30.31in /  1026.3hPa NE 2.0mph /  3.2km/h 4.0mph /  6.4km/h 76% 0.00in /  0mm
05:09 29.1 °F /  -1.6 °C 22.5 °F /  -5.3 °C 30.31in /  1026.3hPa NE 2.0mph /  3.2km/h 5.0mph /  8km/h 76% 0.00in /  0mm
05:14 29.1 °F /  -1.6 °C 22.5 °F /  -5.3 °C 30.31in /  1026.3hPa NNE 2.0mph /  3.2km/h 5.0mph /  8km/h 76% 0.00in /  0mm
05:19 29.1 °F /  -1.6 °C 22.5 °F /  -5.3 °C 30.31in /  1026.3hPa NNE 2.0mph /  3.2km/h 5.0mph /  8km/h 76% 0.00in /  0mm
05:24 29.1 °F /  -1.6 °C 22.5 °F /  -5.3 °C 30.31in /  1026.3hPa NNE 2.0mph /  3.2km/h 3.0mph /  4.8km/h 76% 0.00in /  0mm
05:29 29.1 °F /  -1.6 °C 22.5 °F /  -5.3 °C 30.31in /  1026.3hPa NNE 1.0mph /  1.6km/h 4.0mph /  6.4km/h 76% 0.00in /  0mm
05:34 29.1 °F /  -1.6 °C 22.5 °F /  -5.3 °C 30.31in /  1026.3hPa NNE 4.0mph /  6.4km/h 4.0mph /  6.4km/h 76% 0.00in /  0mm
05:39 29.1 °F /  -1.6 °C 22.5 °F /  -5.3 °C 30.31in /  1026.3hPa NNE 2.0mph /  3.2km/h 5.0mph /  8km/h 76% 0.00in /  0mm
05:44 29.1 °F /  -1.6 °C 22.5 °F /  -5.3 °C 30.30in /  1026hPa NNE 3.0mph /  4.8km/h 5.0mph /  8km/h 76% 0.00in /  0mm
05:49 29.1 °F /  -1.6 °C 22.5 °F /  -5.3 °C 30.30in /  1026hPa ENE 2.0mph /  3.2km/h 5.0mph /  8km/h 76% 0.00in /  0mm
05:54 29.2 °F /  -1.6 °C 22.6 °F /  -5.2 °C 30.30in /  1026hPa NE 2.0mph /  3.2km/h 5.0mph /  8km/h 76% 0.00in /  0mm
05:59 29.1 °F /  -1.6 °C 22.5 °F /  -5.3 °C 30.30in /  1026hPa NE 3.0mph /  4.8km/h 7.0mph /  11.3km/h 76% 0.00in /  0mm
06:04 29.1 °F /  -1.6 °C 22.5 °F /  -5.3 °C 30.30in /  1026hPa NE 3.0mph /  4.8km/h 7.0mph /  11.3km/h 76% 0.00in /  0mm
06:09 29.2 °F /  -1.6 °C 22.6 °F /  -5.2 °C 30.30in /  1026hPa NE 3.0mph /  4.8km/h 6.0mph /  9.7km/h 76% 0.00in /  0mm
06:14 29.2 °F /  -1.6 °C 22.6 °F /  -5.2 °C 30.30in /  1026hPa NE 4.0mph /  6.4km/h 8.0mph /  12.9km/h 76% 0.00in /  0mm
06:19 29.2 °F /  -1.6 °C 22.6 °F /  -5.2 °C 30.30in /  1026hPa NE 4.0mph /  6.4km/h 8.0mph /  12.9km/h 76% 0.00in /  0mm
06:24 29.2 °F /  -1.6 °C 22.6 °F /  -5.2 °C 30.30in /  1026hPa NE 3.0mph /  4.8km/h 7.0mph /  11.3km/h 76% 0.00in /  0mm
06:29 29.2 °F /  -1.6 °C 22.6 °F /  -5.2 °C 30.30in /  1026hPa NE 3.0mph /  4.8km/h 7.0mph /  11.3km/h 76% 0.00in /  0mm
06:34 29.1 °F /  -1.6 °C 22.5 °F /  -5.3 °C 30.30in /  1026hPa ENE 3.0mph /  4.8km/h 6.0mph /  9.7km/h 76% 0.00in /  0mm
06:39 29.0 °F /  -1.7 °C 22.4 °F /  -5.3 °C 30.30in /  1026hPa ENE 2.0mph /  3.2km/h 7.0mph /  11.3km/h 76% 0.00in /  0mm
06:44 29.0 °F /  -1.7 °C 22.4 °F /  -5.3 °C 30.30in /  1026hPa NE 1.0mph /  1.6km/h 7.0mph /  11.3km/h 76% 0.00in /  0mm
06:49 29.0 °F /  -1.7 °C 22.4 °F /  -5.3 °C 30.30in /  1026hPa NE 2.0mph /  3.2km/h 5.0mph /  8km/h 76% 0.00in /  0mm
06:54 29.0 °F /  -1.7 °C 22.7 °F /  -5.2 °C 30.31in /  1026.3hPa NE 2.0mph /  3.2km/h 6.0mph /  9.7km/h 77% 0.00in /  0mm
06:59 29.1 °F /  -1.6 °C 22.8 °F /  -5.1 °C 30.31in /  1026.3hPa NE 3.0mph /  4.8km/h 5.0mph /  8km/h 77% 0.00in /  0mm
07:04 29.1 °F /  -1.6 °C 22.8 °F /  -5.1 °C 30.30in /  1026hPa ENE 2.0mph /  3.2km/h 5.0mph /  8km/h 77% 0.00in /  0mm
07:09 29.1 °F /  -1.6 °C 22.5 °F /  -5.3 °C 30.30in /  1026hPa NE 2.0mph /  3.2km/h 7.0mph /  11.3km/h 76% 0.00in /  0mm
07:14 29.2 °F /  -1.6 °C 22.6 °F /  -5.2 °C 30.30in /  1026hPa ENE 3.0mph /  4.8km/h 7.0mph /  11.3km/h 76% 0.00in /  0mm
07:19 29.2 °F /  -1.6 °C 22.6 °F /  -5.2 °C 30.30in /  1026hPa ENE 3.0mph /  4.8km/h 6.0mph /  9.7km/h 76% 0.00in /  0mm
07:24 29.2 °F /  -1.6 °C 22.6 °F /  -5.2 °C 30.30in /  1026hPa ENE 3.0mph /  4.8km/h 8.0mph /  12.9km/h 76% 0.00in /  0mm
07:29 29.2 °F /  -1.6 °C 22.9 °F /  -5.1 °C 30.30in /  1026hPa ENE 3.0mph /  4.8km/h 8.0mph /  12.9km/h 77% 0.00in /  0mm
07:34 29.1 °F /  -1.6 °C 22.8 °F /  -5.1 °C 30.29in /  1025.6hPa East 3.0mph /  4.8km/h 7.0mph /  11.3km/h 77% 0.00in /  0mm
07:39 29.1 °F /  -1.6 °C 22.8 °F /  -5.1 °C 30.29in /  1025.6hPa East 3.0mph /  4.8km/h 7.0mph /  11.3km/h 77% 0.00in /  0mm
07:44 29.1 °F /  -1.6 °C 22.8 °F /  -5.1 °C 30.29in /  1025.6hPa ENE 2.0mph /  3.2km/h 7.0mph /  11.3km/h 77% 0.00in /  0mm
07:49 29.2 °F /  -1.6 °C 22.9 °F /  -5.1 °C 30.30in /  1026hPa ENE 2.0mph /  3.2km/h 6.0mph /  9.7km/h 77% 0.00in /  0mm
07:54 29.2 °F /  -1.6 °C 22.9 °F /  -5.1 °C 30.30in /  1026hPa East 1.0mph /  1.6km/h 7.0mph /  11.3km/h 77% 0.00in /  0mm
07:59 29.2 °F /  -1.6 °C 22.9 °F /  -5.1 °C 30.30in /  1026hPa East 3.0mph /  4.8km/h 5.0mph /  8km/h 77% 0.00in /  0mm
08:04 29.2 °F /  -1.6 °C 22.9 °F /  -5.1 °C 30.30in /  1026hPa East 1.0mph /  1.6km/h 7.0mph /  11.3km/h 77% 0.00in /  0mm
08:09 29.3 °F /  -1.5 °C 23.0 °F /  -5 °C 30.30in /  1026hPa ENE 4.0mph /  6.4km/h 9.0mph /  14.5km/h 77% 0.00in /  0mm
08:14 29.3 °F /  -1.5 °C 23.0 °F /  -5 °C 30.29in /  1025.6hPa ENE 2.0mph /  3.2km/h 8.0mph /  12.9km/h 77% 0.00in /  0mm
08:19 29.5 °F /  -1.4 °C 23.2 °F /  -4.9 °C 30.29in /  1025.6hPa ENE 3.0mph /  4.8km/h 8.0mph /  12.9km/h 77% 0.00in /  0mm
08:24 29.5 °F /  -1.4 °C 23.2 °F /  -4.9 °C 30.29in /  1025.6hPa ENE 3.0mph /  4.8km/h 8.0mph /  12.9km/h 77% 0.00in /  0mm
08:29 29.7 °F /  -1.3 °C 23.7 °F /  -4.6 °C 30.29in /  1025.6hPa ENE 3.0mph /  4.8km/h 8.0mph /  12.9km/h 78% 0.00in /  0mm
08:34 29.8 °F /  -1.2 °C 23.8 °F /  -4.6 °C 30.29in /  1025.6hPa ENE 2.0mph /  3.2km/h 6.0mph /  9.7km/h 78% 0.00in /  0mm
08:39 29.9 °F /  -1.2 °C 23.6 °F /  -4.7 °C 30.29in /  1025.6hPa ENE 2.0mph /  3.2km/h 9.0mph /  14.5km/h 77% 0.00in /  0mm
08:44 29.9 °F /  -1.2 °C 23.6 °F /  -4.7 °C 30.29in /  1025.6hPa East 3.0mph /  4.8km/h 7.0mph /  11.3km/h 77% 0.00in /  0mm
08:49 30.0 °F /  -1.1 °C 24.0 °F /  -4.4 °C 30.29in /  1025.6hPa ENE 3.0mph /  4.8km/h 8.0mph /  12.9km/h 78% 0.00in /  0mm
08:54 30.0 °F /  -1.1 °C 24.0 °F /  -4.4 °C 30.29in /  1025.6hPa ENE 5.0mph /  8km/h 11.0mph /  17.7km/h 78% 0.00in /  0mm
08:59 30.0 °F /  -1.1 °C 24.0 °F /  -4.4 °C 30.29in /  1025.6hPa ESE 5.0mph /  8km/h 9.0mph /  14.5km/h 78% 0.00in /  0mm
09:04 30.1 °F /  -1.1 °C 24.1 °F /  -4.4 °C 30.29in /  1025.6hPa NE 2.0mph /  3.2km/h 8.0mph /  12.9km/h 78% 0.00in /  0mm
09:09 30.1 °F /  -1.1 °C 24.1 °F /  -4.4 °C 30.29in /  1025.6hPa ESE 8.0mph /  12.9km/h 10.0mph /  16.1km/h 78% 0.00in /  0mm
09:14 30.1 °F /  -1.1 °C 24.1 °F /  -4.4 °C 30.29in /  1025.6hPa ENE 7.0mph /  11.3km/h 10.0mph /  16.1km/h 78% 0.00in /  0mm
09:19 30.1 °F /  -1.1 °C 24.1 °F /  -4.4 °C 30.28in /  1025.3hPa ENE 5.0mph /  8km/h 11.0mph /  17.7km/h 78% 0.00in /  0mm
09:24 30.1 °F /  -1.1 °C 24.4 °F /  -4.2 °C 30.28in /  1025.3hPa ENE 5.0mph /  8km/h 11.0mph /  17.7km/h 79% 0.00in /  0mm
09:29 30.1 °F /  -1.1 °C 24.4 °F /  -4.2 °C 30.28in /  1025.3hPa ENE 5.0mph /  8km/h 11.0mph /  17.7km/h 79% 0.00in /  0mm
09:34 30.3 °F /  -0.9 °C 24.6 °F /  -4.1 °C 30.28in /  1025.3hPa ENE 5.0mph /  8km/h 11.0mph /  17.7km/h 79% 0.00in /  0mm
09:39 30.5 °F /  -0.8 °C 24.8 °F /  -4 °C 30.28in /  1025.3hPa East 4.0mph /  6.4km/h 11.0mph /  17.7km/h 79% 0.00in /  0mm
09:44 30.7 °F /  -0.7 °C 25.0 °F /  -3.9 °C 30.28in /  1025.3hPa ENE 5.0mph /  8km/h 9.0mph /  14.5km/h 79% 0.00in /  0mm
09:49 30.8 °F /  -0.7 °C 24.7 °F /  -4.1 °C 30.28in /  1025.3hPa ENE 3.0mph /  4.8km/h 8.0mph /  12.9km/h 78% 0.00in /  0mm
09:54 30.8 °F /  -0.7 °C 24.7 °F /  -4.1 °C 30.28in /  1025.3hPa ENE 4.0mph /  6.4km/h 11.0mph /  17.7km/h 78% 0.00in /  0mm
09:59 30.8 °F /  -0.7 °C 24.7 °F /  -4.1 °C 30.28in /  1025.3hPa ENE 7.0mph /  11.3km/h 11.0mph /  17.7km/h 78% 0.00in /  0mm
10:04 30.9 °F /  -0.6 °C 24.8 °F /  -4 °C 30.28in /  1025.3hPa NE 5.0mph /  8km/h 7.0mph /  11.3km/h 78% 0.00in /  0mm
10:09 30.9 °F /  -0.6 °C 24.8 °F /  -4 °C 30.28in /  1025.3hPa ENE 4.0mph /  6.4km/h 9.0mph /  14.5km/h 78% 0.00in /  0mm
10:14 30.9 °F /  -0.6 °C 24.8 °F /  -4 °C 30.28in /  1025.3hPa ENE 4.0mph /  6.4km/h 10.0mph /  16.1km/h 78% 0.00in /  0mm
10:19 31.1 °F /  -0.5 °C 25.0 °F /  -3.9 °C 30.28in /  1025.3hPa ENE 4.0mph /  6.4km/h 11.0mph /  17.7km/h 78% 0.00in /  0mm
10:24 31.3 °F /  -0.4 °C 25.2 °F /  -3.8 °C 30.28in /  1025.3hPa ENE 4.0mph /  6.4km/h 13.0mph /  20.9km/h 78% 0.00in /  0mm
10:29 31.4 °F /  -0.3 °C 25.0 °F /  -3.9 °C 30.28in /  1025.3hPa ENE 4.0mph /  6.4km/h 13.0mph /  20.9km/h 77% 0.00in /  0mm
10:34 31.5 °F /  -0.3 °C 25.1 °F /  -3.8 °C 30.28in /  1025.3hPa ENE 4.0mph /  6.4km/h 10.0mph /  16.1km/h 77% 0.00in /  0mm
10:39 31.6 °F /  -0.2 °C 25.2 °F /  -3.8 °C 30.28in /  1025.3hPa ENE 5.0mph /  8km/h 10.0mph /  16.1km/h 77% 0.00in /  0mm
10:44 31.8 °F /  -0.1 °C 25.4 °F /  -3.7 °C 30.28in /  1025.3hPa East 1.0mph /  1.6km/h 9.0mph /  14.5km/h 77% 0.00in /  0mm
10:49 31.9 °F /  -0.1 °C 25.5 °F /  -3.6 °C 30.27in /  1024.9hPa East 6.0mph /  9.7km/h 10.0mph /  16.1km/h 77% 0.00in /  0mm
10:54 32.1 °F /  0.1 °C 25.7 °F /  -3.5 °C 30.27in /  1024.9hPa ESE 5.0mph /  8km/h 11.0mph /  17.7km/h 77% 0.00in /  0mm
10:59 32.5 °F /  0.3 °C 26.1 °F /  -3.3 °C 30.27in /  1024.9hPa NNE 3.0mph /  4.8km/h 10.0mph /  16.1km/h 77% 0.00in /  0mm
11:04 33.1 °F /  0.6 °C 26.4 °F /  -3.1 °C 30.26in /  1024.6hPa ENE 4.0mph /  6.4km/h 10.0mph /  16.1km/h 76% 0.00in /  0mm
11:09 33.4 °F /  0.8 °C 26.3 °F /  -3.2 °C 30.26in /  1024.6hPa East 6.0mph /  9.7km/h 11.0mph /  17.7km/h 75% 0.00in /  0mm
11:14 33.5 °F /  0.8 °C 26.4 °F /  -3.1 °C 30.26in /  1024.6hPa NE 3.0mph /  4.8km/h 9.0mph /  14.5km/h 75% 0.00in /  0mm
11:19 34.1 °F /  1.2 °C 26.7 °F /  -2.9 °C 30.26in /  1024.6hPa NE 7.0mph /  11.3km/h 9.0mph /  14.5km/h 74% 0.00in /  0mm
11:24 34.3 °F /  1.3 °C 26.9 °F /  -2.8 °C 30.25in /  1024.3hPa NE 5.0mph /  8km/h 10.0mph /  16.1km/h 74% 0.00in /  0mm
11:29 34.8 °F /  1.6 °C 27.4 °F /  -2.6 °C 30.25in /  1024.3hPa ENE 5.0mph /  8km/h 11.0mph /  17.7km/h 74% 0.00in /  0mm
11:34 35.0 °F /  1.7 °C 27.2 °F /  -2.7 °C 30.24in /  1023.9hPa ENE 5.0mph /  8km/h 11.0mph /  17.7km/h 73% 0.00in /  0mm
11:39 35.1 °F /  1.7 °C 27.3 °F /  -2.6 °C 30.24in /  1023.9hPa ENE 5.0mph /  8km/h 11.0mph /  17.7km/h 73% 0.00in /  0mm
11:44 34.6 °F /  1.4 °C 26.5 °F /  -3.1 °C 30.24in /  1023.9hPa NE 4.0mph /  6.4km/h 10.0mph /  16.1km/h 72% 0.00in /  0mm
11:49 34.6 °F /  1.4 °C 26.8 °F /  -2.9 °C 30.24in /  1023.9hPa ENE 2.0mph /  3.2km/h 11.0mph /  17.7km/h 73% 0.00in /  0mm
11:54 34.9 °F /  1.6 °C 26.8 °F /  -2.9 °C 30.23in /  1023.6hPa NE 7.0mph /  11.3km/h 11.0mph /  17.7km/h 72% 0.00in /  0mm
11:59 35.0 °F /  1.7 °C 27.2 °F /  -2.7 °C 30.23in /  1023.6hPa ENE 4.0mph /  6.4km/h 11.0mph /  17.7km/h 73% 0.00in /  0mm
12:04 34.6 °F /  1.4 °C 26.5 °F /  -3.1 °C 30.23in /  1023.6hPa ENE 5.0mph /  8km/h 10.0mph /  16.1km/h 72% 0.00in /  0mm
12:09 34.1 °F /  1.2 °C 26.0 °F /  -3.3 °C 30.23in /  1023.6hPa NE 8.0mph /  12.9km/h 13.0mph /  20.9km/h 72% 0.00in /  0mm
12:14 34.0 °F /  1.1 °C 26.3 °F /  -3.2 °C 30.22in /  1023.2hPa NE 4.0mph /  6.4km/h 13.0mph /  20.9km/h 73% 0.00in /  0mm
12:19 34.0 °F /  1.1 °C 26.3 °F /  -3.2 °C 30.22in /  1023.2hPa NE 8.0mph /  12.9km/h 12.0mph /  19.3km/h 73% 0.00in /  0mm
12:24 34.1 °F /  1.2 °C 26.3 °F /  -3.2 °C 30.22in /  1023.2hPa NE 6.0mph /  9.7km/h 12.0mph /  19.3km/h 73% 0.00in /  0mm
12:29 34.2 °F /  1.2 °C 26.4 °F /  -3.1 °C 30.21in /  1022.9hPa ENE 3.0mph /  4.8km/h 12.0mph /  19.3km/h 73% 0.00in /  0mm
12:34 34.2 °F /  1.2 °C 26.4 °F /  -3.1 °C 30.21in /  1022.9hPa ENE 6.0mph /  9.7km/h 12.0mph /  19.3km/h 73% 0.00in /  0mm
12:39 34.1 °F /  1.2 °C 26.3 °F /  -3.2 °C 30.21in /  1022.9hPa ENE 6.0mph /  9.7km/h 10.0mph /  16.1km/h 73% 0.00in /  0mm
12:44 34.3 °F /  1.3 °C 26.5 °F /  -3.1 °C 30.21in /  1022.9hPa NE 6.0mph /  9.7km/h 13.0mph /  20.9km/h 73% 0.00in /  0mm
12:49 34.1 °F /  1.2 °C 26.3 °F /  -3.2 °C 30.20in /  1022.6hPa NE 7.0mph /  11.3km/h 13.0mph /  20.9km/h 73% 0.00in /  0mm
12:54 34.3 °F /  1.3 °C 26.5 °F /  -3.1 °C 30.20in /  1022.6hPa NE 3.0mph /  4.8km/h 15.0mph /  24.1km/h 73% 0.00in /  0mm
12:59 34.6 °F /  1.4 °C 26.8 °F /  -2.9 °C 30.19in /  1022.2hPa ENE 7.0mph /  11.3km/h 11.0mph /  17.7km/h 73% 0.00in /  0mm
13:04 34.6 °F /  1.4 °C 26.5 °F /  -3.1 °C 30.19in /  1022.2hPa NE 6.0mph /  9.7km/h 15.0mph /  24.1km/h 72% 0.00in /  0mm
13:09 34.6 °F /  1.4 °C 26.5 °F /  -3.1 °C 30.19in /  1022.2hPa NE 7.0mph /  11.3km/h 15.0mph /  24.1km/h 72% 0.00in /  0mm
13:14 35.2 °F /  1.8 °C 27.4 °F /  -2.6 °C 30.19in /  1022.2hPa East 6.0mph /  9.7km/h 12.0mph /  19.3km/h 73% 0.00in /  0mm
13:19 36.1 °F /  2.3 °C 27.6 °F /  -2.4 °C 30.19in /  1022.2hPa NE 6.0mph /  9.7km/h 11.0mph /  17.7km/h 71% 0.00in /  0mm
13:24 35.5 °F /  1.9 °C 27.0 °F /  -2.8 °C 30.18in /  1021.9hPa NE 4.0mph /  6.4km/h 15.0mph /  24.1km/h 71% 0.00in /  0mm
13:29 35.1 °F /  1.7 °C 27.0 °F /  -2.8 °C 30.18in /  1021.9hPa ENE 8.0mph /  12.9km/h 13.0mph /  20.9km/h 72% 0.00in /  0mm
13:34 34.8 °F /  1.6 °C 26.7 °F /  -2.9 °C 30.18in /  1021.9hPa NE 7.0mph /  11.3km/h 16.0mph /  25.7km/h 72% 0.00in /  0mm
13:39 35.0 °F /  1.7 °C 27.2 °F /  -2.7 °C 30.18in /  1021.9hPa NE 7.0mph /  11.3km/h 16.0mph /  25.7km/h 73% 0.00in /  0mm
13:44 34.9 °F /  1.6 °C 26.8 °F /  -2.9 °C 30.17in /  1021.6hPa NE 8.0mph /  12.9km/h 14.0mph /  22.5km/h 72% 0.00in /  0mm
13:49 34.5 °F /  1.4 °C 26.4 °F /  -3.1 °C 30.17in /  1021.6hPa NE 8.0mph /  12.9km/h 17.0mph /  27.4km/h 72% 0.00in /  0mm
13:54 34.6 °F /  1.4 °C 26.5 °F /  -3.1 °C 30.17in /  1021.6hPa NE 7.0mph /  11.3km/h 17.0mph /  27.4km/h 72% 0.00in /  0mm
13:59 35.0 °F /  1.7 °C 27.2 °F /  -2.7 °C 30.17in /  1021.6hPa NE 7.0mph /  11.3km/h 14.0mph /  22.5km/h 73% 0.00in /  0mm
14:04 34.2 °F /  1.2 °C 26.1 °F /  -3.3 °C 30.16in /  1021.2hPa NE 7.0mph /  11.3km/h 14.0mph /  22.5km/h 72% 0.00in /  0mm
14:09 34.9 °F /  1.6 °C 27.1 °F /  -2.7 °C 30.16in /  1021.2hPa NE 7.0mph /  11.3km/h 14.0mph /  22.5km/h 73% 0.00in /  0mm
14:14 35.2 °F /  1.8 °C 27.1 °F /  -2.7 °C 30.16in /  1021.2hPa NE 8.0mph /  12.9km/h 18.0mph /  29km/h 72% 0.00in /  0mm
14:19 34.6 °F /  1.4 °C 26.5 °F /  -3.1 °C 30.16in /  1021.2hPa NE 8.0mph /  12.9km/h 17.0mph /  27.4km/h 72% 0.00in /  0mm
14:24 34.1 °F /  1.2 °C 26.3 °F /  -3.2 °C 30.16in /  1021.2hPa NNE 2.0mph /  3.2km/h 11.0mph /  17.7km/h 73% 0.00in /  0mm
14:29 34.0 °F /  1.1 °C 26.3 °F /  -3.2 °C 30.16in /  1021.2hPa NNE 5.0mph /  8km/h 11.0mph /  17.7km/h 73% 0.00in /  0mm
14:34 33.5 °F /  0.8 °C 25.8 °F /  -3.4 °C 30.16in /  1021.2hPa NNE 6.0mph /  9.7km/h 13.0mph /  20.9km/h 73% 0.00in /  0mm
14:39 33.2 °F /  0.7 °C 25.8 °F /  -3.4 °C 30.16in /  1021.2hPa NE 6.0mph /  9.7km/h 13.0mph /  20.9km/h 74% 0.00in /  0mm
14:44 32.8 °F /  0.4 °C 25.7 °F /  -3.5 °C 30.16in /  1021.2hPa NE 6.0mph /  9.7km/h 13.0mph /  20.9km/h 75% 0.00in /  0mm
14:49 32.7 °F /  0.4 °C 26.0 °F /  -3.3 °C 30.16in /  1021.2hPa NNE 6.0mph /  9.7km/h 12.0mph /  19.3km/h 76% 0.00in /  0mm
14:54 32.6 °F /  0.3 °C 25.9 °F /  -3.4 °C 30.16in /  1021.2hPa NNE 6.0mph /  9.7km/h 11.0mph /  17.7km/h 76% 0.00in /  0mm
14:59 32.6 °F /  0.3 °C 25.9 °F /  -3.4 °C 30.16in /  1021.2hPa NE 7.0mph /  11.3km/h 15.0mph /  24.1km/h 76% 0.00in /  0mm
15:04 33.0 °F /  0.6 °C 26.3 °F /  -3.2 °C 30.16in /  1021.2hPa NE 9.0mph /  14.5km/h 11.0mph /  17.7km/h 76% 0.00in /  0mm
15:09 32.1 °F /  0.1 °C 25.4 °F /  -3.7 °C 30.16in /  1021.2hPa NNE 5.0mph /  8km/h 15.0mph /  24.1km/h 76% 0.00in /  0mm
15:14 31.7 °F /  -0.2 °C 25.3 °F /  -3.7 °C 30.16in /  1021.2hPa NE 5.0mph /  8km/h 17.0mph /  27.4km/h 77% 0.00in /  0mm
15:19 31.6 °F /  -0.2 °C 25.2 °F /  -3.8 °C 30.15in /  1020.9hPa NE 7.0mph /  11.3km/h 13.0mph /  20.9km/h 77% 0.00in /  0mm
15:24 31.6 °F /  -0.2 °C 25.5 °F /  -3.6 °C 30.15in /  1020.9hPa NE 6.0mph /  9.7km/h 15.0mph /  24.1km/h 78% 0.00in /  0mm
15:29 31.7 °F /  -0.2 °C 25.3 °F /  -3.7 °C 30.15in /  1020.9hPa NE 7.0mph /  11.3km/h 12.0mph /  19.3km/h 77% 0.00in /  0mm
15:34 31.1 °F /  -0.5 °C 25.0 °F /  -3.9 °C 30.15in /  1020.9hPa NNE 7.0mph /  11.3km/h 13.0mph /  20.9km/h 78% 0.00in /  0mm
15:39 30.9 °F /  -0.6 °C 24.8 °F /  -4 °C 30.15in /  1020.9hPa NNE 11.0mph /  17.7km/h 15.0mph /  24.1km/h 78% 0.00in /  0mm
15:44 30.5 °F /  -0.8 °C 24.5 °F /  -4.2 °C 30.15in /  1020.9hPa NE 8.0mph /  12.9km/h 16.0mph /  25.7km/h 78% 0.00in /  0mm
15:49 30.5 °F /  -0.8 °C 24.8 °F /  -4 °C 30.15in /  1020.9hPa NE 9.0mph /  14.5km/h 19.0mph /  30.6km/h 79% 0.00in /  0mm
15:54 30.1 °F /  -1.1 °C 24.4 °F /  -4.2 °C 30.15in /  1020.9hPa NE 9.0mph /  14.5km/h 19.0mph /  30.6km/h 79% 0.00in /  0mm
15:59 29.9 °F /  -1.2 °C 24.2 °F /  -4.3 °C 30.15in /  1020.9hPa NE 9.0mph /  14.5km/h 17.0mph /  27.4km/h 79% 0.00in /  0mm
16:04 29.6 °F /  -1.3 °C 24.2 °F /  -4.3 °C 30.14in /  1020.5hPa NE 9.0mph /  14.5km/h 22.0mph /  35.4km/h 80% 0.00in /  0mm
16:09 29.6 °F /  -1.3 °C 24.2 °F /  -4.3 °C 30.14in /  1020.5hPa NE 9.0mph /  14.5km/h 22.0mph /  35.4km/h 80% 0.00in /  0mm
16:14 29.6 °F /  -1.3 °C 24.2 °F /  -4.3 °C 30.14in /  1020.5hPa NNE 7.0mph /  11.3km/h 15.0mph /  24.1km/h 80% 0.00in /  0mm
16:19 29.8 °F /  -1.2 °C 24.4 °F /  -4.2 °C 30.14in /  1020.5hPa NE 7.0mph /  11.3km/h 12.0mph /  19.3km/h 80% 0.00in /  0mm
16:24 29.6 °F /  -1.3 °C 24.2 °F /  -4.3 °C 30.14in /  1020.5hPa NE 7.0mph /  11.3km/h 16.0mph /  25.7km/h 80% 0.00in /  0mm
16:29 29.3 °F /  -1.5 °C 23.9 °F /  -4.5 °C 30.14in /  1020.5hPa NNE 8.0mph /  12.9km/h 13.0mph /  20.9km/h 80% 0.00in /  0mm
16:34 29.1 °F /  -1.6 °C 23.7 °F /  -4.6 °C 30.14in /  1020.5hPa NE 7.0mph /  11.3km/h 17.0mph /  27.4km/h 80% 0.00in /  0mm
16:39 28.9 °F /  -1.7 °C 23.5 °F /  -4.7 °C 30.14in /  1020.5hPa NE 9.0mph /  14.5km/h 17.0mph /  27.4km/h 80% 0.00in /  0mm
16:44 28.7 °F /  -1.8 °C 23.3 °F /  -4.8 °C 30.14in /  1020.5hPa NE 6.0mph /  9.7km/h 17.0mph /  27.4km/h 80% 0.00in /  0mm
16:49 28.7 °F /  -1.8 °C 23.6 °F /  -4.7 °C 30.14in /  1020.5hPa NE 9.0mph /  14.5km/h 14.0mph /  22.5km/h 81% 0.00in /  0mm
16:54 28.6 °F /  -1.9 °C 23.5 °F /  -4.7 °C 30.14in /  1020.5hPa NE 9.0mph /  14.5km/h 14.0mph /  22.5km/h 81% 0.00in /  0mm
16:59 28.6 °F /  -1.9 °C 23.5 °F /  -4.7 °C 30.14in /  1020.5hPa NE 8.0mph /  12.9km/h 16.0mph /  25.7km/h 81% 0.00in /  0mm
17:04 28.5 °F /  -1.9 °C 23.4 °F /  -4.8 °C 30.14in /  1020.5hPa NE 7.0mph /  11.3km/h 16.0mph /  25.7km/h 81% 0.00in /  0mm
17:09 28.5 °F /  -1.9 °C 23.4 °F /  -4.8 °C 30.14in /  1020.5hPa NE 7.0mph /  11.3km/h 15.0mph /  24.1km/h 81% 0.00in /  0mm
17:14 28.5 °F /  -1.9 °C 23.4 °F /  -4.8 °C 30.15in /  1020.9hPa NNE 9.0mph /  14.5km/h 15.0mph /  24.1km/h 81% 0.00in /  0mm
17:19 28.4 °F /  -2 °C 23.3 °F /  -4.8 °C 30.15in /  1020.9hPa NNE 5.0mph /  8km/h 14.0mph /  22.5km/h 81% 0.00in /  0mm
17:24 28.3 °F /  -2.1 °C 23.2 °F /  -4.9 °C 30.15in /  1020.9hPa NE 8.0mph /  12.9km/h 15.0mph /  24.1km/h 81% 0.00in /  0mm
17:29 28.2 °F /  -2.1 °C 23.1 °F /  -4.9 °C 30.15in /  1020.9hPa NE 9.0mph /  14.5km/h 18.0mph /  29km/h 81% 0.00in /  0mm
17:34 28.2 °F /  -2.1 °C 23.1 °F /  -4.9 °C 30.15in /  1020.9hPa NE 9.0mph /  14.5km/h 18.0mph /  29km/h 81% 0.00in /  0mm
17:39 28.1 °F /  -2.2 °C 23.0 °F /  -5 °C 30.15in /  1020.9hPa NE 10.0mph /  16.1km/h 15.0mph /  24.1km/h 81% 0.00in /  0mm
17:44 28.1 °F /  -2.2 °C 23.0 °F /  -5 °C 30.15in /  1020.9hPa NNE 6.0mph /  9.7km/h 14.0mph /  22.5km/h 81% 0.00in /  0mm
17:49 28.1 °F /  -2.2 °C 23.0 °F /  -5 °C 30.14in /  1020.5hPa ENE 7.0mph /  11.3km/h 14.0mph /  22.5km/h 81% 0.00in /  0mm
17:54 28.0 °F /  -2.2 °C 22.9 °F /  -5.1 °C 30.14in /  1020.5hPa NE 9.0mph /  14.5km/h 15.0mph /  24.1km/h 81% 0.00in /  0mm
17:59 28.0 °F /  -2.2 °C 22.9 °F /  -5.1 °C 30.14in /  1020.5hPa NE 8.0mph /  12.9km/h 22.0mph /  35.4km/h 81% 0.00in /  0mm
18:04 27.8 °F /  -2.3 °C 22.7 °F /  -5.2 °C 30.14in /  1020.5hPa NE 9.0mph /  14.5km/h 22.0mph /  35.4km/h 81% 0.00in /  0mm
18:09 27.8 °F /  -2.3 °C 22.7 °F /  -5.2 °C 30.15in /  1020.9hPa NE 8.0mph /  12.9km/h 17.0mph /  27.4km/h 81% 0.00in /  0mm
18:14 27.8 °F /  -2.3 °C 22.7 °F /  -5.2 °C 30.14in /  1020.5hPa ENE 13.0mph /  20.9km/h 18.0mph /  29km/h 81% 0.00in /  0mm
18:19 27.7 °F /  -2.4 °C 22.6 °F /  -5.2 °C 30.14in /  1020.5hPa NE 4.0mph /  6.4km/h 15.0mph /  24.1km/h 81% 0.00in /  0mm
18:24 27.7 °F /  -2.4 °C 22.6 °F /  -5.2 °C 30.14in /  1020.5hPa NE 4.0mph /  6.4km/h 13.0mph /  20.9km/h 81% 0.00in /  0mm
18:29 27.6 °F /  -2.4 °C 22.5 °F /  -5.3 °C 30.13in /  1020.2hPa NE 7.0mph /  11.3km/h 15.0mph /  24.1km/h 81% 0.00in /  0mm
18:34 27.5 °F /  -2.5 °C 22.4 °F /  -5.3 °C 30.14in /  1020.5hPa NE 7.0mph /  11.3km/h 16.0mph /  25.7km/h 81% 0.00in /  0mm
18:39 27.4 °F /  -2.6 °C 22.3 °F /  -5.4 °C 30.13in /  1020.2hPa NE 8.0mph /  12.9km/h 16.0mph /  25.7km/h 81% 0.00in /  0mm
18:44 27.3 °F /  -2.6 °C 22.5 °F /  -5.3 °C 30.13in /  1020.2hPa ENE 12.0mph /  19.3km/h 18.0mph /  29km/h 82% 0.00in /  0mm
18:49 27.2 °F /  -2.7 °C 22.4 °F /  -5.3 °C 30.13in /  1020.2hPa NE 5.0mph /  8km/h 17.0mph /  27.4km/h 82% 0.00in /  0mm
18:54 27.1 °F /  -2.7 °C 22.3 °F /  -5.4 °C 30.14in /  1020.5hPa NNE 8.0mph /  12.9km/h 15.0mph /  24.1km/h 82% 0.00in /  0mm
18:59 27.0 °F /  -2.8 °C 22.2 °F /  -5.4 °C 30.13in /  1020.2hPa NE 9.0mph /  14.5km/h 18.0mph /  29km/h 82% 0.00in /  0mm
19:04 26.9 °F /  -2.8 °C 22.4 °F /  -5.3 °C 30.13in /  1020.2hPa NE 10.0mph /  16.1km/h 18.0mph /  29km/h 83% 0.00in /  0mm
19:09 26.9 °F /  -2.8 °C 22.4 °F /  -5.3 °C 30.13in /  1020.2hPa NE 9.0mph /  14.5km/h 15.0mph /  24.1km/h 83% 0.00in /  0mm
19:14 26.9 °F /  -2.8 °C 22.4 °F /  -5.3 °C 30.13in /  1020.2hPa NE 9.0mph /  14.5km/h 16.0mph /  25.7km/h 83% 0.00in /  0mm
19:19 26.9 °F /  -2.8 °C 22.4 °F /  -5.3 °C 30.13in /  1020.2hPa NE 4.0mph /  6.4km/h 15.0mph /  24.1km/h 83% 0.00in /  0mm
19:24 26.9 °F /  -2.8 °C 22.4 °F /  -5.3 °C 30.13in /  1020.2hPa NE 3.0mph /  4.8km/h 14.0mph /  22.5km/h 83% 0.00in /  0mm
19:29 27.0 °F /  -2.8 °C 22.5 °F /  -5.3 °C 30.13in /  1020.2hPa NE 5.0mph /  8km/h 15.0mph /  24.1km/h 83% 0.00in /  0mm
19:34 27.0 °F /  -2.8 °C 22.5 °F /  -5.3 °C 30.13in /  1020.2hPa NE 7.0mph /  11.3km/h 15.0mph /  24.1km/h 83% 0.00in /  0mm
19:39 27.0 °F /  -2.8 °C 22.5 °F /  -5.3 °C 30.13in /  1020.2hPa ENE 6.0mph /  9.7km/h 14.0mph /  22.5km/h 83% 0.00in /  0mm
19:44 27.0 °F /  -2.8 °C 22.5 °F /  -5.3 °C 30.13in /  1020.2hPa NE 7.0mph /  11.3km/h 15.0mph /  24.1km/h 83% 0.00in /  0mm
19:49 27.0 °F /  -2.8 °C 22.5 °F /  -5.3 °C 30.13in /  1020.2hPa NE 7.0mph /  11.3km/h 15.0mph /  24.1km/h 83% 0.00in /  0mm
19:54 26.9 °F /  -2.8 °C 22.4 °F /  -5.3 °C 30.13in /  1020.2hPa NE 6.0mph /  9.7km/h 12.0mph /  19.3km/h 83% 0.00in /  0mm
19:59 26.9 °F /  -2.8 °C 22.7 °F /  -5.2 °C 30.12in /  1019.9hPa NE 8.0mph /  12.9km/h 13.0mph /  20.9km/h 84% 0.00in /  0mm
20:04 26.9 °F /  -2.8 °C 22.7 °F /  -5.2 °C 30.12in /  1019.9hPa NE 7.0mph /  11.3km/h 15.0mph /  24.1km/h 84% 0.00in /  0mm
20:09 26.8 °F /  -2.9 °C 22.6 °F /  -5.2 °C 30.13in /  1020.2hPa NE 8.0mph /  12.9km/h 15.0mph /  24.1km/h 84% 0.00in /  0mm
20:14 26.8 °F /  -2.9 °C 22.6 °F /  -5.2 °C 30.12in /  1019.9hPa NE 7.0mph /  11.3km/h 15.0mph /  24.1km/h 84% 0.00in /  0mm
20:19 26.7 °F /  -2.9 °C 22.5 °F /  -5.3 °C 30.12in /  1019.9hPa NE 7.0mph /  11.3km/h 14.0mph /  22.5km/h 84% 0.00in /  0mm
20:24 26.6 °F /  -3 °C 22.7 °F /  -5.2 °C 30.12in /  1019.9hPa NE 6.0mph /  9.7km/h 14.0mph /  22.5km/h 85% 0.00in /  0mm
20:29 26.5 °F /  -3.1 °C 22.6 °F /  -5.2 °C 30.12in /  1019.9hPa NE 7.0mph /  11.3km/h 11.0mph /  17.7km/h 85% 0.00in /  0mm
20:34 26.5 °F /  -3.1 °C 22.6 °F /  -5.2 °C 30.12in /  1019.9hPa NE 6.0mph /  9.7km/h 14.0mph /  22.5km/h 85% 0.00in /  0mm
20:39 26.4 °F /  -3.1 °C 22.5 °F /  -5.3 °C 30.12in /  1019.9hPa NE 6.0mph /  9.7km/h 14.0mph /  22.5km/h 85% 0.00in /  0mm
20:44 26.3 °F /  -3.2 °C 22.7 °F /  -5.2 °C 30.12in /  1019.9hPa NE 6.0mph /  9.7km/h 11.0mph /  17.7km/h 86% 0.00in /  0mm
20:49 26.2 °F /  -3.2 °C 22.6 °F /  -5.2 °C 30.12in /  1019.9hPa North 6.0mph /  9.7km/h 12.0mph /  19.3km/h 86% 0.00in /  0mm
20:54 26.1 °F /  -3.3 °C 22.5 °F /  -5.3 °C 30.11in /  1019.5hPa NNE 4.0mph /  6.4km/h 11.0mph /  17.7km/h 86% 0.00in /  0mm
20:59 26.0 °F /  -3.3 °C 22.7 °F /  -5.2 °C 30.11in /  1019.5hPa ENE 7.0mph /  11.3km/h 11.0mph /  17.7km/h 87% 0.00in /  0mm
21:04 25.9 °F /  -3.4 °C 22.6 °F /  -5.2 °C 30.11in /  1019.5hPa NNE 4.0mph /  6.4km/h 8.0mph /  12.9km/h 87% 0.00in /  0mm
21:09 25.9 °F /  -3.4 °C 22.6 °F /  -5.2 °C 30.11in /  1019.5hPa NNE 4.0mph /  6.4km/h 8.0mph /  12.9km/h 87% 0.00in /  0mm
21:14 25.8 °F /  -3.4 °C 22.5 °F /  -5.3 °C 30.11in /  1019.5hPa NNE 4.0mph /  6.4km/h 9.0mph /  14.5km/h 87% 0.00in /  0mm
21:19 25.6 °F /  -3.6 °C 22.3 °F /  -5.4 °C 30.11in /  1019.5hPa NNE 5.0mph /  8km/h 11.0mph /  17.7km/h 87% 0.00in /  0mm
21:24 25.6 °F /  -3.6 °C 22.5 °F /  -5.3 °C 30.11in /  1019.5hPa NE 5.0mph /  8km/h 11.0mph /  17.7km/h 88% 0.00in /  0mm
21:29 25.5 °F /  -3.6 °C 22.4 °F /  -5.3 °C 30.11in /  1019.5hPa NNE 7.0mph /  11.3km/h 10.0mph /  16.1km/h 88% 0.00in /  0mm
21:34 25.4 °F /  -3.7 °C 22.3 °F /  -5.4 °C 30.11in /  1019.5hPa NNE 4.0mph /  6.4km/h 10.0mph /  16.1km/h 88% 0.00in /  0mm
21:39 25.4 °F /  -3.7 °C 22.3 °F /  -5.4 °C 30.11in /  1019.5hPa NNE 5.0mph /  8km/h 10.0mph /  16.1km/h 88% 0.00in /  0mm
21:44 25.3 °F /  -3.7 °C 22.2 °F /  -5.4 °C 30.11in /  1019.5hPa North 10.0mph /  16.1km/h 11.0mph /  17.7km/h 88% 0.00in /  0mm
21:49 25.2 °F /  -3.8 °C 22.1 °F /  -5.5 °C 30.11in /  1019.5hPa NNE 5.0mph /  8km/h 11.0mph /  17.7km/h 88% 0.00in /  0mm
21:54 25.1 °F /  -3.8 °C 22.0 °F /  -5.6 °C 30.11in /  1019.5hPa NE 7.0mph /  11.3km/h 9.0mph /  14.5km/h 88% 0.00in /  0mm
21:59 25.0 °F /  -3.9 °C 21.9 °F /  -5.6 °C 30.11in /  1019.5hPa NNE 4.0mph /  6.4km/h 8.0mph /  12.9km/h 88% 0.00in /  0mm
22:04 25.0 °F /  -3.9 °C 21.9 °F /  -5.6 °C 30.11in /  1019.5hPa NNE 5.0mph /  8km/h 7.0mph /  11.3km/h 88% 0.00in /  0mm
22:09 24.9 °F /  -3.9 °C 21.8 °F /  -5.7 °C 30.11in /  1019.5hPa NNE 3.0mph /  4.8km/h 8.0mph /  12.9km/h 88% 0.00in /  0mm
22:14 24.9 °F /  -3.9 °C 21.8 °F /  -5.7 °C 30.10in /  1019.2hPa NNE 6.0mph /  9.7km/h 10.0mph /  16.1km/h 88% 0.00in /  0mm
22:19 24.7 °F /  -4.1 °C 21.9 °F /  -5.6 °C 30.10in /  1019.2hPa NNE 6.0mph /  9.7km/h 10.0mph /  16.1km/h 89% 0.00in /  0mm
22:24 24.6 °F /  -4.1 °C 21.6 °F /  -5.8 °C 30.10in /  1019.2hPa NE 5.0mph /  8km/h 12.0mph /  19.3km/h 88% 0.00in /  0mm
22:29 24.5 °F /  -4.2 °C 21.5 °F /  -5.8 °C 30.10in /  1019.2hPa NNE 5.0mph /  8km/h 12.0mph /  19.3km/h 88% 0.00in /  0mm
22:34 24.3 °F /  -4.3 °C 21.5 °F /  -5.8 °C 30.10in /  1019.2hPa NNE 5.0mph /  8km/h 10.0mph /  16.1km/h 89% 0.00in /  0mm
22:39 24.2 °F /  -4.3 °C 21.4 °F /  -5.9 °C 30.10in /  1019.2hPa NNE 5.0mph /  8km/h 10.0mph /  16.1km/h 89% 0.00in /  0mm
22:44 24.1 °F /  -4.4 °C 21.3 °F /  -5.9 °C 30.10in /  1019.2hPa NNE 6.0mph /  9.7km/h 17.0mph /  27.4km/h 89% 0.00in /  0mm
22:49 24.0 °F /  -4.4 °C 21.2 °F /  -6 °C 30.10in /  1019.2hPa NNE 6.0mph /  9.7km/h 17.0mph /  27.4km/h 89% 0.00in /  0mm
22:54 23.9 °F /  -4.5 °C 21.1 °F /  -6.1 °C 30.10in /  1019.2hPa NNE 5.0mph /  8km/h 11.0mph /  17.7km/h 89% 0.00in /  0mm
22:59 23.8 °F /  -4.6 °C 21.0 °F /  -6.1 °C 30.10in /  1019.2hPa NNE 6.0mph /  9.7km/h 9.0mph /  14.5km/h 89% 0.00in /  0mm
23:04 23.8 °F /  -4.6 °C 21.0 °F /  -6.1 °C 30.10in /  1019.2hPa NE 9.0mph /  14.5km/h 10.0mph /  16.1km/h 89% 0.00in /  0mm
23:09 23.6 °F /  -4.7 °C 20.8 °F /  -6.2 °C 30.10in /  1019.2hPa NE 7.0mph /  11.3km/h 11.0mph /  17.7km/h 89% 0.00in /  0mm
23:14 23.4 °F /  -4.8 °C 20.6 °F /  -6.3 °C 30.10in /  1019.2hPa NNE 5.0mph /  8km/h 11.0mph /  17.7km/h 89% 0.00in /  0mm
23:19 23.2 °F /  -4.9 °C 20.4 °F /  -6.4 °C 30.11in /  1019.5hPa NNE 5.0mph /  8km/h 8.0mph /  12.9km/h 89% 0.00in /  0mm
23:24 23.0 °F /  -5 °C 20.2 °F /  -6.6 °C 30.11in /  1019.5hPa NNE 6.0mph /  9.7km/h 11.0mph /  17.7km/h 89% 0.00in /  0mm
23:29 22.8 °F /  -5.1 °C 20.0 °F /  -6.7 °C 30.10in /  1019.2hPa NNE 6.0mph /  9.7km/h 12.0mph /  19.3km/h 89% 0.00in /  0mm
23:34 22.6 °F /  -5.2 °C 19.8 °F /  -6.8 °C 30.10in /  1019.2hPa NNE 6.0mph /  9.7km/h 12.0mph /  19.3km/h 89% 0.00in /  0mm
23:39 22.5 °F /  -5.3 °C 19.7 °F /  -6.8 °C 30.11in /  1019.5hPa NNE 6.0mph /  9.7km/h 11.0mph /  17.7km/h 89% 0.00in /  0mm
23:44 22.4 °F /  -5.3 °C 19.6 °F /  -6.9 °C 30.11in /  1019.5hPa NNE 6.0mph /  9.7km/h 13.0mph /  20.9km/h 89% 0.00in /  0mm
23:49 22.3 °F /  -5.4 °C 19.6 °F /  -6.9 °C 30.11in /  1019.5hPa NNE 6.0mph /  9.7km/h 13.0mph /  20.9km/h 89% 0.00in /  0mm
23:54 22.1 °F /  -5.5 °C 19.4 °F /  -7 °C 30.11in /  1019.5hPa NNE 5.0mph /  8km/h 11.0mph /  17.7km/h 89% 0.00in /  0mm
23:59 22.0 °F /  -5.6 °C 19.3 °F /  -7.1 °C 30.11in /  1019.5hPa NNW 4.0mph /  6.4km/h 9.0mph /  14.5km/h 89% 0.00in /  0mm
Buffalo, New York, USA
Compliments of Weather Underground - 2.5 mb